Time;durP1;ratioP1;P1;durP2;ratioP2;P2;SDS_P1;SDS_P2;PMS_P1;PMS_P2;Temp;Humidity;BMP_temperature;BMP_pressure;BME280_temperature;BME280_humidity;BME280_pressure;Samples;Min_cycle;Max_cycle;Signal;HPM_P1;HPM_P2
2022/03/24 00:00:59;;;;;;;47.03;21.97;;;9.50;47.40;;;;;;5033081;28;20206;-78
2022/03/24 00:03:28;;;;;;;47.17;23.03;;;9.50;47.70;;;;;;5030420;28;20200;-79
2022/03/24 00:05:56;;;;;;;52.57;22.20;;;9.40;47.90;;;;;;5036261;28;20195;-78
2022/03/24 00:08:25;;;;;;;48.80;23.60;;;9.40;47.80;;;;;;5030860;28;20205;-80
2022/03/24 00:10:54;;;;;;;48.43;22.67;;;9.40;47.70;;;;;;5032926;28;20208;-79
2022/03/24 00:13:23;;;;;;;44.27;22.27;;;9.30;47.60;;;;;;5027935;28;20195;-80
2022/03/24 00:15:51;;;;;;;51.93;22.90;;;9.30;47.60;;;;;;5031171;28;20216;-79
2022/03/24 00:18:20;;;;;;;45.03;21.67;;;9.30;47.70;;;;;;5031768;28;20219;-79
2022/03/24 00:20:48;;;;;;;53.13;23.60;;;9.30;47.80;;;;;;5026026;28;20240;-81
2022/03/24 00:23:17;;;;;;;53.50;24.07;;;9.30;48.00;;;;;;5034012;28;20914;-80
2022/03/24 00:25:50;;;;;;;47.43;21.77;;;9.30;48.10;;;;;;5032889;28;20198;-78
2022/03/24 00:28:20;;;;;;;51.47;21.97;;;9.30;48.10;;;;;;5033616;28;20199;-79
2022/03/24 00:30:48;;;;;;;51.03;22.67;;;9.20;48.20;;;;;;5031813;28;20191;-81
2022/03/24 00:33:17;;;;;;;44.97;22.93;;;9.20;48.20;;;;;;5029576;28;20207;-78
2022/03/24 00:35:45;;;;;;;52.83;23.60;;;9.20;48.50;;;;;;5028497;28;20762;-79
2022/03/24 00:38:14;;;;;;;46.60;23.13;;;9.10;48.50;;;;;;5032086;28;20890;-79
2022/03/24 00:40:42;;;;;;;46.33;22.30;;;9.10;48.70;;;;;;5032844;28;20230;-79
2022/03/24 00:43:11;;;;;;;52.47;22.63;;;9.10;48.90;;;;;;5031237;28;20203;-79
2022/03/24 00:45:40;;;;;;;46.33;22.90;;;9.00;48.80;;;;;;5033449;28;20209;-80
2022/03/24 00:48:09;;;;;;;44.00;18.77;;;9.00;48.90;;;;;;5031923;28;20407;-79
2022/03/24 00:50:38;;;;;;;39.37;18.23;;;9.00;49.80;;;;;;5031476;28;21459;-79
2022/03/24 00:53:06;;;;;;;33.50;15.93;;;9.00;49.80;;;;;;5032572;28;20210;-78
2022/03/24 00:55:35;;;;;;;31.60;15.93;;;9.00;50.30;;;;;;5031277;28;20227;-77
2022/03/24 00:58:04;;;;;;;35.00;14.47;;;8.90;51.30;;;;;;5033349;28;21161;-79
2022/03/24 01:00:33;;;;;;;29.57;13.87;;;8.90;51.90;;;;;;5030588;28;20238;-79
2022/03/24 01:03:06;;;;;;;33.40;14.13;;;8.90;52.20;;;;;;5031845;28;20214;-78
2022/03/24 01:05:37;;;;;;;29.07;13.87;;;8.90;52.30;;;;;;5035125;28;20667;-78
2022/03/24 01:08:08;;;;;;;26.97;12.87;;;9.00;52.10;;;;;;5030431;28;20291;-78
2022/03/24 01:10:37;;;;;;;25.27;12.50;;;9.00;52.90;;;;;;5034512;28;20198;-81
2022/03/24 01:13:05;;;;;;;24.00;12.40;;;9.00;52.80;;;;;;5036886;28;20195;-78
2022/03/24 01:15:34;;;;;;;20.83;11.23;;;9.00;52.80;;;;;;5035609;28;20199;-79
2022/03/24 01:18:06;;;;;;;31.57;11.97;;;9.00;53.10;;;;;;5037990;28;20202;-79
2022/03/24 01:20:34;;;;;;;25.27;11.40;;;9.00;53.00;;;;;;5037605;28;20238;-80
2022/03/24 01:23:02;;;;;;;25.53;11.87;;;9.00;53.20;;;;;;5036071;28;20263;-79
2022/03/24 01:25:31;;;;;;;29.93;12.37;;;9.00;53.40;;;;;;5029236;28;20202;-79
2022/03/24 01:27:59;;;;;;;24.83;11.23;;;9.00;53.70;;;;;;5030245;28;20208;-80
2022/03/24 01:30:28;;;;;;;23.80;10.40;;;9.00;53.70;;;;;;5037627;28;20485;-80
2022/03/24 01:32:56;;;;;;;21.20;9.80;;;9.10;53.90;;;;;;5035513;28;20208;-79
2022/03/24 01:35:26;;;;;;;28.90;10.53;;;9.00;54.70;;;;;;5036534;28;20210;-80
2022/03/24 01:37:54;;;;;;;23.77;9.57;;;9.00;54.50;;;;;;5032402;28;20195;-80
2022/03/24 01:40:23;;;;;;;24.33;9.23;;;9.00;54.20;;;;;;5030500;28;20215;-77
2022/03/24 01:42:52;;;;;;;19.80;8.73;;;9.10;54.30;;;;;;5034775;28;20212;-79
2022/03/24 01:45:20;;;;;;;19.50;10.27;;;9.10;54.10;;;;;;5039522;28;20282;-79
2022/03/24 01:47:49;;;;;;;18.60;9.80;;;9.10;54.70;;;;;;5034086;28;20195;-76
2022/03/24 01:50:17;;;;;;;17.60;8.47;;;9.10;54.60;;;;;;5032953;28;20578;-80
2022/03/24 01:52:47;;;;;;;22.57;9.03;;;9.10;54.60;;;;;;5035863;28;20554;-78
2022/03/24 01:55:16;;;;;;;20.93;9.10;;;9.10;54.70;;;;;;5033350;28;20671;-79
2022/03/24 01:57:46;;;;;;;23.20;9.07;;;9.10;54.70;;;;;;5036056;28;20198;-79
2022/03/24 02:00:15;;;;;;;23.13;10.43;;;9.10;54.60;;;;;;5035152;28;20225;-78
2022/03/24 02:02:45;;;;;;;22.17;9.37;;;9.20;54.40;;;;;;5037526;28;20206;-79
2022/03/24 02:05:13;;;;;;;27.67;10.00;;;9.20;54.50;;;;;;5033486;28;20196;-82
2022/03/24 02:07:42;;;;;;;24.77;9.83;;;9.20;54.80;;;;;;5034087;28;20678;-79
2022/03/24 02:10:13;;;;;;;18.17;9.07;;;9.20;55.20;;;;;;5032375;28;21688;-79
2022/03/24 02:12:43;;;;;;;21.37;10.37;;;9.10;55.50;;;;;;5034868;28;20207;-80
2022/03/24 02:15:12;;;;;;;22.47;9.97;;;9.10;55.70;;;;;;5035241;28;20667;-79
2022/03/24 02:17:41;;;;;;;22.53;9.60;;;9.10;55.50;;;;;;5033204;28;20211;-79
2022/03/24 02:20:10;;;;;;;23.50;11.00;;;9.10;55.30;;;;;;5033948;28;20745;-78
2022/03/24 02:22:40;;;;;;;24.47;10.10;;;9.10;55.00;;;;;;5036570;28;21224;-78
2022/03/24 02:25:09;;;;;;;23.03;10.07;;;9.10;54.90;;;;;;5029821;28;20200;-78
2022/03/24 02:27:41;;;;;;;23.93;11.03;;;9.10;55.40;;;;;;5032753;28;20192;-80
2022/03/24 02:30:10;;;;;;;21.13;10.63;;;9.10;56.00;;;;;;5033570;28;20203;-81
2022/03/24 02:32:39;;;;;;;21.90;10.67;;;9.10;55.90;;;;;;5034094;28;20195;-77
2022/03/24 02:35:09;;;;;;;24.40;10.50;;;9.00;55.80;;;;;;5031624;28;20211;-78
2022/03/24 02:37:37;;;;;;;19.33;10.40;;;9.00;55.90;;;;;;5033848;28;20203;-78
2022/03/24 02:40:09;;;;;;;25.03;10.33;;;9.00;55.80;;;;;;5035137;28;20577;-78
2022/03/24 02:42:39;;;;;;;22.90;10.63;;;9.00;55.50;;;;;;5035826;28;20199;-79
2022/03/24 02:45:10;;;;;;;32.47;11.70;;;9.00;55.70;;;;;;5027892;28;20245;-80
2022/03/24 02:47:39;;;;;;;24.17;10.50;;;9.00;55.60;;;;;;5035509;28;20203;-79
2022/03/24 02:50:10;;;;;;;26.93;10.77;;;8.90;55.40;;;;;;5035747;28;20205;-79
2022/03/24 02:52:38;;;;;;;25.57;11.10;;;8.90;55.40;;;;;;5035155;28;20275;-80
2022/03/24 02:55:09;;;;;;;30.10;12.63;;;8.90;55.40;;;;;;5032746;28;20867;-78
2022/03/24 02:57:38;;;;;;;28.17;12.03;;;8.90;55.40;;;;;;5037991;28;20724;-79
2022/03/24 03:00:08;;;;;;;23.80;11.27;;;8.90;55.50;;;;;;5035566;28;20215;-79
2022/03/24 03:02:37;;;;;;;24.60;12.07;;;8.90;55.40;;;;;;5030106;28;20207;-80
2022/03/24 03:05:07;;;;;;;23.93;12.37;;;8.80;55.90;;;;;;5033681;28;20263;-81
2022/03/24 03:07:35;;;;;;;25.80;12.53;;;8.80;55.80;;;;;;5029990;28;21170;-81
2022/03/24 03:10:08;;;;;;;26.93;11.40;;;8.80;55.80;;;;;;5032797;28;20194;-82
2022/03/24 03:12:37;;;;;;;22.53;10.77;;;8.70;55.90;;;;;;5035233;28;20198;-78
2022/03/24 03:15:06;;;;;;;26.63;10.67;;;8.70;56.00;;;;;;5030126;28;20671;-79
2022/03/24 03:17:36;;;;;;;23.30;10.27;;;8.70;56.40;;;;;;5033642;28;20220;-80
2022/03/24 03:20:05;;;;;;;24.27;10.43;;;8.60;56.60;;;;;;5034302;28;20242;-79
2022/03/24 03:22:34;;;;;;;26.23;10.63;;;8.60;56.60;;;;;;5032617;28;20194;-80
2022/03/24 03:25:02;;;;;;;26.83;10.13;;;8.50;56.50;;;;;;5029984;28;20205;-80
2022/03/24 03:27:32;;;;;;;26.17;9.93;;;8.50;56.50;;;;;;5033392;28;20205;-80
2022/03/24 03:30:01;;;;;;;22.10;9.90;;;8.50;56.50;;;;;;5030105;28;20207;-80
2022/03/24 03:32:29;;;;;;;21.33;9.27;;;8.40;56.30;;;;;;5036104;28;20747;-80
2022/03/24 03:34:57;;;;;;;22.23;10.07;;;8.40;56.60;;;;;;5035613;28;20241;-80
2022/03/24 03:37:26;;;;;;;20.97;10.90;;;8.40;56.70;;;;;;5035644;28;20210;-79
2022/03/24 03:39:54;;;;;;;25.33;10.77;;;8.40;56.50;;;;;;5034843;28;20394;-79
2022/03/24 03:42:24;;;;;;;22.20;10.10;;;8.30;56.70;;;;;;5035841;28;20202;-80
2022/03/24 03:44:54;;;;;;;29.13;12.13;;;8.30;57.00;;;;;;5033899;28;20195;-81
2022/03/24 03:47:23;;;;;;;30.87;11.63;;;8.20;57.30;;;;;;5029436;28;20897;-80
2022/03/24 03:49:51;;;;;;;24.03;10.27;;;8.20;57.40;;;;;;5036079;28;20206;-80
2022/03/24 03:52:28;;;;;;;21.77;10.23;;;8.10;57.50;;;;;;5035555;28;20594;-80
2022/03/24 03:54:57;;;;;;;23.00;10.13;;;8.10;57.20;;;;;;5029849;28;20217;-81
2022/03/24 03:57:25;;;;;;;24.37;10.57;;;8.10;57.00;;;;;;5036213;28;20208;-80
2022/03/24 04:00:52;;;;;;;27.80;10.63;;;8.00;57.10;;;;;;5035676;28;20203;-80
2022/03/24 04:02:47;;;;;;;25.93;10.87;;;8.00;56.90;;;;;;5030531;28;20217;-81
2022/03/24 04:05:16;;;;;;;21.00;10.97;;;8.00;56.90;;;;;;5032219;28;20698;-79
2022/03/24 04:07:45;;;;;;;23.63;10.23;;;8.00;56.80;;;;;;5035295;28;20210;-79
2022/03/24 04:10:13;;;;;;;18.90;9.20;;;8.00;57.00;;;;;;5032927;28;20220;-80
2022/03/24 04:12:45;;;;;;;21.13;10.70;;;7.90;56.90;;;;;;5034406;28;20193;-79
2022/03/24 04:15:14;;;;;;;23.63;9.97;;;7.90;56.70;;;;;;5032090;28;20240;-79
2022/03/24 04:17:43;;;;;;;26.13;10.20;;;7.90;56.60;;;;;;5031861;28;20203;-79
2022/03/24 04:20:13;;;;;;;23.70;10.73;;;7.90;57.10;;;;;;5031422;28;20229;-82
2022/03/24 04:22:42;;;;;;;23.30;10.27;;;7.80;57.10;;;;;;5031844;28;20198;-79
2022/03/24 04:25:10;;;;;;;25.53;11.53;;;7.80;57.10;;;;;;5030194;28;20281;-80
2022/03/24 04:27:39;;;;;;;23.40;9.57;;;7.80;57.20;;;;;;5030864;28;20208;-79
2022/03/24 04:30:08;;;;;;;21.40;9.40;;;7.70;57.30;;;;;;5030050;28;20213;-79
2022/03/24 04:32:38;;;;;;;27.47;9.93;;;7.70;57.60;;;;;;5032449;28;20202;-80
2022/03/24 04:35:07;;;;;;;22.37;9.23;;;7.70;57.40;;;;;;5031568;28;20205;-80
2022/03/24 04:37:36;;;;;;;25.70;9.17;;;7.70;57.20;;;;;;5028198;28;20224;-79
2022/03/24 04:40:06;;;;;;;22.37;9.20;;;7.70;57.20;;;;;;5034254;28;20284;-79
2022/03/24 04:42:35;;;;;;;21.83;8.73;;;7.70;57.20;;;;;;5033972;28;20226;-78
2022/03/24 04:45:04;;;;;;;19.80;8.57;;;7.70;57.40;;;;;;5031331;28;20210;-79
2022/03/24 04:47:32;;;;;;;24.83;10.43;;;7.70;57.30;;;;;;5037597;28;20206;-80
2022/03/24 04:50:03;;;;;;;17.23;9.00;;;7.70;57.50;;;;;;5040060;28;20205;-80
2022/03/24 04:52:31;;;;;;;19.40;8.83;;;7.70;57.50;;;;;;5039061;28;20201;-77
2022/03/24 04:55:00;;;;;;;21.93;9.30;;;7.70;57.10;;;;;;5037935;28;20198;-78
2022/03/24 04:57:29;;;;;;;17.57;9.27;;;7.70;57.50;;;;;;5040109;28;20198;-80
2022/03/24 04:59:57;;;;;;;25.60;10.40;;;7.70;57.60;;;;;;5039923;28;20202;-78
2022/03/24 05:02:26;;;;;;;28.80;10.60;;;7.70;57.40;;;;;;5040784;28;20225;-80
2022/03/24 05:04:55;;;;;;;23.53;9.10;;;7.70;57.20;;;;;;5038521;28;20211;-79
2022/03/24 05:07:26;;;;;;;27.47;9.60;;;7.80;57.20;;;;;;5040720;28;20291;-80
2022/03/24 05:09:55;;;;;;;24.77;10.03;;;7.80;57.10;;;;;;5040319;28;20202;-79
2022/03/24 05:12:23;;;;;;;26.93;9.97;;;7.90;57.10;;;;;;5040673;28;20215;-79
2022/03/24 05:14:52;;;;;;;23.70;9.83;;;7.90;57.10;;;;;;5040255;28;20848;-79
2022/03/24 05:17:21;;;;;;;26.50;9.30;;;7.90;56.90;;;;;;5039765;28;20199;-77
2022/03/24 05:19:50;;;;;;;20.70;9.63;;;8.00;57.20;;;;;;5041299;28;20248;-78
2022/03/24 05:22:18;;;;;;;26.73;10.17;;;8.00;57.10;;;;;;5040803;28;20246;-79
2022/03/24 05:24:48;;;;;;;21.60;9.93;;;8.10;57.10;;;;;;5038593;28;20302;-78
2022/03/24 05:27:16;;;;;;;22.87;10.17;;;8.10;57.10;;;;;;5039560;28;20314;-80
2022/03/24 05:29:45;;;;;;;25.13;9.80;;;8.20;57.10;;;;;;5039949;28;20197;-81
2022/03/24 05:32:13;;;;;;;28.13;10.27;;;8.20;57.10;;;;;;5039738;28;20203;-81
2022/03/24 05:34:42;;;;;;;22.83;10.90;;;8.20;57.70;;;;;;5038851;28;20202;-79
2022/03/24 05:37:10;;;;;;;27.63;10.23;;;8.30;57.10;;;;;;5040618;28;20202;-80
2022/03/24 05:39:38;;;;;;;24.47;11.10;;;8.30;57.00;;;;;;5038341;28;21605;-80
2022/03/24 05:42:09;;;;;;;25.93;10.63;;;8.40;56.80;;;;;;5037624;28;20216;-79
2022/03/24 05:44:38;;;;;;;23.43;10.63;;;8.40;56.80;;;;;;5039232;28;20206;-78
2022/03/24 05:47:08;;;;;;;23.43;10.70;;;8.50;56.80;;;;;;5039745;28;20203;-80
2022/03/24 05:49:36;;;;;;;23.40;10.73;;;8.60;56.60;;;;;;5039514;28;20231;-79
2022/03/24 05:52:05;;;;;;;28.47;10.63;;;8.60;56.50;;;;;;5039524;28;20211;-78
2022/03/24 05:54:35;;;;;;;25.63;10.37;;;8.70;56.40;;;;;;5038433;28;20206;-80
2022/03/24 05:57:04;;;;;;;26.80;10.30;;;8.80;56.30;;;;;;5035260;28;20247;-79
2022/03/24 05:59:36;;;;;;;26.50;11.03;;;8.90;56.20;;;;;;5032614;28;20207;-79
2022/03/24 06:02:05;;;;;;;28.27;10.37;;;9.00;56.20;;;;;;5032806;28;20231;-79
2022/03/24 06:04:35;;;;;;;30.20;10.70;;;9.10;56.00;;;;;;5034412;28;20207;-80
2022/03/24 06:07:05;;;;;;;23.00;11.33;;;9.20;56.00;;;;;;5033415;28;20765;-80
2022/03/24 06:09:34;;;;;;;27.43;11.37;;;9.20;55.90;;;;;;5032688;28;20881;-80
2022/03/24 06:12:03;;;;;;;28.13;11.73;;;9.30;55.90;;;;;;5030756;28;20201;-80
2022/03/24 06:14:32;;;;;;;23.47;10.77;;;9.40;55.90;;;;;;5033988;28;20199;-83
2022/03/24 06:17:02;;;;;;;25.77;10.77;;;9.50;55.70;;;;;;5036045;28;20210;-80
2022/03/24 06:19:31;;;;;;;27.90;10.87;;;9.60;55.60;;;;;;5033829;28;20234;-81
2022/03/24 06:21:59;;;;;;;27.80;11.23;;;9.70;55.50;;;;;;5036170;28;20239;-81
2022/03/24 06:24:29;;;;;;;19.83;10.20;;;9.80;55.50;;;;;;5037055;28;20204;-81
2022/03/24 06:26:58;;;;;;;24.30;10.73;;;9.90;55.40;;;;;;5035752;28;20206;-81
2022/03/24 06:29:26;;;;;;;33.30;9.90;;;10.00;55.30;;;;;;5034781;28;20238;-81
2022/03/24 06:31:58;;;;;;;23.23;11.13;;;10.10;55.20;;;;;;5033749;28;20942;-80
2022/03/24 06:34:28;;;;;;;21.60;11.00;;;10.20;55.00;;;;;;5037009;28;20268;-79
2022/03/24 06:36:56;;;;;;;25.40;10.60;;;10.30;54.80;;;;;;5033744;28;20209;-82
2022/03/24 06:39:25;;;;;;;25.77;10.90;;;10.40;54.70;;;;;;5033097;28;20202;-80
2022/03/24 06:41:55;;;;;;;19.87;10.77;;;10.60;54.70;;;;;;5034554;28;21232;-81
2022/03/24 06:44:23;;;;;;;20.57;10.50;;;10.60;54.60;;;;;;5035197;28;20206;-81
2022/03/24 06:46:52;;;;;;;24.20;12.17;;;10.80;54.50;;;;;;5035670;28;20203;-84
2022/03/24 06:49:23;;;;;;;27.87;10.47;;;10.90;54.40;;;;;;5034416;28;20195;-79
2022/03/24 06:51:53;;;;;;;26.43;11.63;;;11.00;54.40;;;;;;5034587;28;20730;-79
2022/03/24 06:54:24;;;;;;;23.27;10.10;;;11.20;54.30;;;;;;5035029;28;20203;-80
2022/03/24 06:56:53;;;;;;;22.77;10.87;;;11.30;54.20;;;;;;5034102;28;20210;-81
2022/03/24 06:59:27;;;;;;;20.23;9.77;;;11.50;53.90;;;;;;5035724;28;20203;-85
2022/03/24 07:01:57;;;;;;;25.70;10.53;;;11.70;53.70;;;;;;5017759;28;20887;-79
2022/03/24 07:04:28;;;;;;;21.70;10.03;;;11.90;53.60;;;;;;5034937;28;20191;-82
2022/03/24 07:06:58;;;;;;;21.03;9.80;;;12.00;53.30;;;;;;5034305;28;20604;-81
2022/03/24 07:09:26;;;;;;;25.30;9.57;;;12.20;52.80;;;;;;5036368;28;20198;-78
2022/03/24 07:11:58;;;;;;;24.00;10.03;;;12.40;52.40;;;;;;5033406;28;20662;-80
2022/03/24 07:14:26;;;;;;;21.67;10.40;;;12.60;52.30;;;;;;5035439;28;20209;-81
2022/03/24 07:16:57;;;;;;;20.77;9.60;;;12.80;51.60;;;;;;5035801;28;20653;-80
2022/03/24 07:19:25;;;;;;;25.93;9.60;;;13.00;51.30;;;;;;5033183;28;20843;-80
2022/03/24 07:21:55;;;;;;;23.27;10.77;;;13.10;50.80;;;;;;5032484;28;20953;-83
2022/03/24 07:24:25;;;;;;;27.57;10.47;;;13.30;50.70;;;;;;5035282;28;20258;-82
2022/03/24 07:26:54;;;;;;;21.17;10.53;;;13.50;50.70;;;;;;5034090;28;20241;-80
2022/03/24 07:29:25;;;;;;;21.73;10.00;;;13.70;49.90;;;;;;5036965;28;20191;-83
2022/03/24 07:31:55;;;;;;;24.93;10.70;;;13.80;49.80;;;;;;5037095;28;20202;-82
2022/03/24 07:34:24;;;;;;;24.47;10.77;;;14.00;49.50;;;;;;5031979;28;20203;-82
2022/03/24 07:36:53;;;;;;;26.50;11.17;;;14.20;49.30;;;;;;5035884;28;20730;-83
2022/03/24 07:39:21;;;;;;;18.47;9.40;;;14.30;49.10;;;;;;5034533;28;20664;-82
2022/03/24 07:41:51;;;;;;;22.67;9.97;;;14.50;48.80;;;;;;5036020;28;20614;-83
2022/03/24 07:44:22;;;;;;;25.97;9.37;;;14.60;48.30;;;;;;5036237;28;20218;-80
2022/03/24 07:46:50;;;;;;;20.27;9.83;;;14.70;47.40;;;;;;5034572;28;20889;-81
2022/03/24 07:49:19;;;;;;;19.23;9.87;;;14.90;48.10;;;;;;5033300;28;20203;-81
2022/03/24 07:51:47;;;;;;;20.97;8.87;;;15.00;47.10;;;;;;5036014;28;20700;-80
2022/03/24 07:54:16;;;;;;;17.90;9.17;;;15.10;46.80;;;;;;5034122;28;20191;-79
2022/03/24 07:56:48;;;;;;;19.07;9.73;;;15.30;46.30;;;;;;5035677;28;20202;-83
2022/03/24 07:59:20;;;;;;;21.43;8.80;;;15.40;46.30;;;;;;5035528;28;20223;-79
2022/03/24 08:01:48;;;;;;;21.70;9.73;;;15.50;46.30;;;;;;5033785;28;20213;-79
2022/03/24 08:04:17;;;;;;;17.57;9.27;;;15.70;46.00;;;;;;5033735;28;20324;-78
2022/03/24 08:06:45;;;;;;;22.67;9.40;;;15.80;45.20;;;;;;5034241;28;20227;-78
2022/03/24 08:09:15;;;;;;;23.53;8.93;;;15.90;45.20;;;;;;5034761;28;20199;-78
2022/03/24 08:11:43;;;;;;;19.40;9.90;;;16.00;45.00;;;;;;5034572;28;20199;-80
2022/03/24 08:14:12;;;;;;;20.77;9.27;;;16.20;44.90;;;;;;5032677;28;20192;-79
2022/03/24 08:16:45;;;;;;;17.43;8.73;;;16.30;44.80;;;;;;5034351;28;20208;-77
2022/03/24 08:19:14;;;;;;;19.17;9.50;;;16.50;44.70;;;;;;5033714;28;20239;-78
2022/03/24 08:21:43;;;;;;;19.30;8.90;;;16.60;43.70;;;;;;5034395;28;20195;-78
2022/03/24 08:24:12;;;;;;;16.13;7.77;;;16.70;43.80;;;;;;5034221;28;20221;-78
2022/03/24 08:26:41;;;;;;;16.90;8.07;;;16.80;43.20;;;;;;5031809;28;20206;-79
2022/03/24 08:29:09;;;;;;;16.80;7.83;;;17.00;41.90;;;;;;4998255;28;20205;-77
2022/03/24 08:31:37;;;;;;;12.83;7.30;;;17.10;41.50;;;;;;5030465;28;20203;-78
2022/03/24 08:34:07;;;;;;;16.00;7.47;;;17.20;41.20;;;;;;5032282;28;20754;-76
2022/03/24 08:36:36;;;;;;;19.63;8.17;;;17.30;41.00;;;;;;5032427;28;20199;-77
2022/03/24 08:39:04;;;;;;;15.77;7.03;;;17.40;39.90;;;;;;5031018;28;20211;-77
2022/03/24 08:41:33;;;;;;;11.70;6.20;;;17.50;40.50;;;;;;5035032;28;20207;-78
2022/03/24 08:44:01;;;;;;;14.30;6.80;;;17.60;40.50;;;;;;5030801;28;20912;-77
2022/03/24 08:46:29;;;;;;;14.03;6.73;;;17.70;40.10;;;;;;5032764;28;20657;-77
2022/03/24 08:48:58;;;;;;;12.53;6.60;;;17.80;40.50;;;;;;5031887;28;20219;-77
2022/03/24 08:51:28;;;;;;;15.27;6.83;;;17.90;40.60;;;;;;5032013;28;20800;-78
2022/03/24 08:53:56;;;;;;;14.23;6.43;;;18.00;39.90;;;;;;5030891;28;20730;-79
2022/03/24 08:56:25;;;;;;;10.63;6.03;;;18.10;39.70;;;;;;5032006;28;20200;-78
2022/03/24 08:58:53;;;;;;;12.07;6.00;;;18.30;39.60;;;;;;5031102;28;20719;-78
2022/03/24 09:01:22;;;;;;;13.27;5.67;;;18.40;39.30;;;;;;5030466;28;20226;-77
2022/03/24 09:03:51;;;;;;;11.53;5.87;;;18.40;39.10;;;;;;5029428;28;20215;-78
2022/03/24 09:06:22;;;;;;;13.83;5.60;;;18.60;38.50;;;;;;5032768;28;20731;-78
2022/03/24 09:08:53;;;;;;;10.73;5.27;;;18.70;38.70;;;;;;5031740;28;20729;-77
2022/03/24 09:11:21;;;;;;;10.67;5.87;;;18.80;38.00;;;;;;5032354;28;20195;-79
2022/03/24 09:13:50;;;;;;;11.20;4.63;;;18.90;37.30;;;;;;5031286;28;20218;-75
2022/03/24 09:16:18;;;;;;;8.90;4.67;;;19.00;36.60;;;;;;5031369;28;20203;-77
2022/03/24 09:18:47;;;;;;;7.87;4.13;;;19.00;35.00;;;;;;5032149;28;20202;-77
2022/03/24 09:21:16;;;;;;;8.23;4.70;;;19.20;35.80;;;;;;5032588;28;20231;-78
2022/03/24 09:23:45;;;;;;;12.50;5.23;;;19.30;35.40;;;;;;5030651;28;20284;-77
2022/03/24 09:26:15;;;;;;;9.17;4.60;;;19.40;34.70;;;;;;5032905;28;20195;-78
2022/03/24 09:28:57;;;;;;;10.60;5.13;;;19.50;34.70;;;;;;5033688;28;20198;-78
2022/03/24 09:31:26;;;;;;;12.77;5.03;;;19.60;34.10;;;;;;5035465;28;20199;-79
2022/03/24 09:33:54;;;;;;;10.40;5.03;;;19.70;34.40;;;;;;5034549;28;20200;-78
2022/03/24 09:36:23;;;;;;;8.97;4.93;;;19.70;33.80;;;;;;5036456;28;20198;-77
2022/03/24 09:38:51;;;;;;;8.43;4.30;;;19.80;33.90;;;;;;5032441;28;20661;-78
2022/03/24 09:41:25;;;;;;;11.90;4.83;;;19.90;34.30;;;;;;5036152;28;20794;-77
2022/03/24 09:43:54;;;;;;;9.37;5.37;;;20.00;34.20;;;;;;5037554;28;20206;-78
2022/03/24 09:46:23;;;;;;;11.07;5.07;;;20.00;33.90;;;;;;5035826;28;20246;-78
2022/03/24 09:48:51;;;;;;;7.57;4.20;;;20.00;33.10;;;;;;5034799;28;20466;-77
2022/03/24 09:51:20;;;;;;;8.43;4.73;;;20.10;33.40;;;;;;5034124;28;20214;-79
2022/03/24 09:53:48;;;;;;;8.27;4.80;;;20.20;33.50;;;;;;5035983;28;20227;-80
2022/03/24 09:56:17;;;;;;;9.10;4.63;;;20.30;32.30;;;;;;5034315;28;20199;-77
2022/03/24 09:58:49;;;;;;;10.13;4.47;;;20.30;31.50;;;;;;5034689;28;20199;-77
2022/03/24 10:01:18;;;;;;;11.60;3.93;;;20.40;30.60;;;;;;5036180;28;20207;-78
2022/03/24 10:04:08;;;;;;;7.60;4.77;;;20.40;29.90;;;;;;5034056;28;20218;-78
2022/03/24 10:06:40;;;;;;;8.83;5.07;;;20.50;29.00;;;;;;5033983;28;20542;-78
2022/03/24 10:09:09;;;;;;;8.93;4.53;;;20.60;29.60;;;;;;5036134;28;20225;-78
2022/03/24 10:11:37;;;;;;;10.53;4.70;;;20.70;29.40;;;;;;5033824;28;20202;-77
2022/03/24 10:14:07;;;;;;;10.70;4.00;;;20.80;29.10;;;;;;5036188;28;20886;-78
2022/03/24 10:16:44;;;;;;;13.33;4.83;;;20.90;29.00;;;;;;5034017;28;20199;-78
2022/03/24 10:19:20;;;;;;;10.70;4.90;;;20.90;27.90;;;;;;5034027;28;20203;-77
2022/03/24 10:21:50;;;;;;;10.20;4.87;;;21.00;28.80;;;;;;5034501;28;20194;-78
2022/03/24 10:24:20;;;;;;;7.00;4.70;;;21.00;28.10;;;;;;5036208;28;20997;-78
2022/03/24 10:26:50;;;;;;;9.83;4.70;;;21.10;28.20;;;;;;5034614;28;20669;-78
2022/03/24 10:29:22;;;;;;;7.75;4.60;;;21.20;28.10;;;;;;5036023;28;20196;-78
2022/03/24 10:31:56;;;;;;;9.33;5.00;;;21.20;27.80;;;;;;5034493;28;20200;-77
2022/03/24 10:34:32;;;;;;;9.70;4.27;;;21.30;28.20;;;;;;5032292;28;20227;-77
2022/03/24 10:37:09;;;;;;;9.63;5.47;;;21.40;28.20;;;;;;5034189;28;20265;-76
2022/03/24 10:39:40;;;;;;;8.98;4.47;;;21.40;28.00;;;;;;5034892;28;20186;-78
2022/03/24 10:42:14;;;;;;;10.00;4.45;;;21.50;27.90;;;;;;5033045;28;20601;-78
2022/03/24 10:45:21;;;;;;;8.23;4.23;;;21.50;28.10;;;;;;5034536;28;20218;-80
2022/03/24 10:48:01;;;;;;;7.10;4.00;;;21.60;28.30;;;;;;5021185;28;20200;-77
2022/03/24 10:50:37;;;;;;;8.97;3.90;;;21.60;26.80;;;;;;5032759;28;20748;-77
2022/03/24 10:53:10;;;;;;;7.70;4.30;;;21.70;27.30;;;;;;5033634;28;20367;-76
2022/03/24 10:56:00;;;;;;;7.43;4.20;;;21.80;27.70;;;;;;5035057;28;20183;-78
2022/03/24 10:58:35;;;;;;;6.60;3.67;;;21.80;27.60;;;;;;5034237;28;20218;-77
2022/03/24 11:01:06;;;;;;;7.30;3.45;;;21.90;27.30;;;;;;5033661;28;20203;-77
2022/03/24 11:03:37;;;;;;;9.75;4.20;;;21.90;27.50;;;;;;5036557;28;20195;-77
2022/03/24 11:06:13;;;;;;;7.82;3.90;;;22.00;27.20;;;;;;5033001;28;20191;-77
2022/03/24 11:08:43;;;;;;;9.60;4.13;;;22.00;27.20;;;;;;5034232;28;20558;-77
2022/03/24 11:11:15;;;;;;;9.88;5.22;;;22.10;27.60;;;;;;5033655;28;20199;-77
2022/03/24 11:13:49;;;;;;;9.43;4.70;;;22.20;27.20;;;;;;5035998;28;20183;-76
2022/03/24 11:16:20;;;;;;;9.75;4.78;;;22.20;27.60;;;;;;5034928;28;20679;-75
2022/03/24 11:18:53;;;;;;;10.43;4.40;;;22.30;27.40;;;;;;5034374;28;20200;-75
2022/03/24 11:21:30;;;;;;;9.00;4.35;;;22.30;27.00;;;;;;5034318;28;20246;-76
2022/03/24 11:24:00;;;;;;;7.13;4.32;;;22.40;26.80;;;;;;5034314;28;20230;-76
2022/03/24 11:26:29;;;;;;;7.57;4.13;;;22.40;27.00;;;;;;5032989;28;20661;-77
2022/03/24 11:28:59;;;;;;;10.13;4.68;;;22.40;26.40;;;;;;5032715;28;20202;-78
2022/03/24 11:31:31;;;;;;;12.38;4.88;;;22.50;27.00;;;;;;5035522;28;20198;-77
2022/03/24 11:34:04;;;;;;;10.85;5.00;;;22.60;27.10;;;;;;5033248;28;20208;-76
2022/03/24 11:36:33;;;;;;;12.70;4.80;;;22.60;26.30;;;;;;5034059;28;20203;-76
2022/03/24 11:39:05;;;;;;;9.57;4.47;;;22.70;26.70;;;;;;5032401;28;20200;-76
2022/03/24 11:41:38;;;;;;;8.10;5.43;;;22.70;26.80;;;;;;5033049;28;20277;-79
2022/03/24 11:44:09;;;;;;;11.82;4.57;;;22.70;26.40;;;;;;5032562;28;20188;-77
2022/03/24 11:46:45;;;;;;;8.18;4.55;;;22.80;26.40;;;;;;5033772;28;20202;-78
2022/03/24 11:49:21;;;;;;;7.95;4.47;;;22.90;26.60;;;;;;5030813;28;20260;-79
2022/03/24 11:51:52;;;;;;;8.95;4.45;;;22.90;26.60;;;;;;4980545;28;20200;-77
2022/03/24 11:54:32;;;;;;;6.88;3.88;;;23.00;26.70;;;;;;5033007;28;20748;-78
2022/03/24 11:57:26;;;;;;;10.10;4.85;;;23.10;26.50;;;;;;5032330;28;20269;-76
2022/03/24 12:00:28;;;;;;;6.72;4.13;;;23.20;26.20;;;;;;5034076;28;20203;-76
2022/03/24 12:03:01;;;;;;;10.73;4.93;;;23.20;26.30;;;;;;5036947;28;20195;-77
2022/03/24 12:05:51;;;;;;;9.40;4.28;;;23.30;26.20;;;;;;5039261;28;20237;-78
2022/03/24 12:08:29;;;;;;;9.40;4.80;;;23.20;25.50;;;;;;5038696;28;20202;-76
2022/03/24 12:10:57;;;;;;;8.88;4.43;;;23.30;25.90;;;;;;5036323;28;20708;-77
2022/03/24 12:13:28;;;;;;;7.68;4.40;;;23.40;26.10;;;;;;5033532;28;20195;-76
2022/03/24 12:16:21;;;;;;;9.82;5.20;;;23.40;25.80;;;;;;5034584;28;20274;-76
2022/03/24 12:18:50;;;;;;;10.50;4.45;;;23.50;25.50;;;;;;5032200;28;20258;-76
2022/03/24 12:21:24;;;;;;;9.80;4.95;;;23.60;26.00;;;;;;5050672;28;20716;-77
2022/03/24 12:24:07;;;;;;;9.98;4.15;;;23.70;26.10;;;;;;5048448;28;20209;-76
2022/03/24 12:26:39;;;;;;;12.23;4.32;;;23.80;26.20;;;;;;5054080;28;20214;-77
2022/03/24 12:29:25;;;;;;;13.15;5.07;;;23.90;26.10;;;;;;5056148;28;20845;-78
2022/03/24 12:31:58;;;;;;;9.40;4.25;;;24.00;25.60;;;;;;5053145;28;20194;-77
2022/03/24 12:34:44;;;;;;;9.80;5.00;;;24.00;25.70;;;;;;5052168;28;20234;-76
2022/03/24 12:37:40;;;;;;;10.75;4.22;;;24.00;25.70;;;;;;5051120;28;20214;-74
2022/03/24 12:40:13;;;;;;;12.13;4.68;;;24.00;25.90;;;;;;5051473;28;20197;-74
2022/03/24 12:42:45;;;;;;;13.40;3.85;;;24.00;25.10;;;;;;5049664;28;20202;-74
2022/03/24 12:45:37;;;;;;;7.20;3.92;;;24.10;25.50;;;;;;5050964;28;20234;-75
2022/03/24 12:48:39;;;;;;;14.30;4.05;;;24.30;25.60;;;;;;5053429;28;20198;-77
2022/03/24 12:51:17;;;;;;;6.50;3.75;;;24.30;25.10;;;;;;5050127;28;20289;-75
2022/03/24 12:54:16;;;;;;;10.05;4.18;;;24.40;25.00;;;;;;5053525;28;20205;-76
2022/03/24 12:56:45;;;;;;;9.18;3.65;;;24.50;24.80;;;;;;5050932;28;20196;-76